createdAt,value
2023-01-02T00:01:40.915Z,21.40
2023-01-02T00:04:08.921Z,27.40
2023-01-02T00:06:39.157Z,29.10
2023-01-02T00:09:08.506Z,22.50
2023-01-02T00:11:36.495Z,30.40
2023-01-02T00:14:04.548Z,25.20
2023-01-02T00:16:32.635Z,23.10
2023-01-02T00:19:00.780Z,23.20
2023-01-02T00:21:28.983Z,23.60
2023-01-02T00:23:56.959Z,23.00
2023-01-02T00:26:24.925Z,26.00
2023-01-02T00:28:53.060Z,30.40
2023-01-02T00:31:21.185Z,28.30
2023-01-02T00:33:49.206Z,23.70
2023-01-02T00:36:17.225Z,23.70
2023-01-02T00:38:45.264Z,24.50
2023-01-02T00:41:31.615Z,32.90
2023-01-02T00:43:59.569Z,25.60
2023-01-02T00:46:27.516Z,23.10
2023-01-02T00:48:55.543Z,25.90
2023-01-02T00:51:23.417Z,22.90
2023-01-02T00:53:51.406Z,23.10
2023-01-02T00:56:19.311Z,21.10
2023-01-02T00:58:47.254Z,28.10
2023-01-02T01:01:15.438Z,27.70
2023-01-02T01:03:43.611Z,21.90
2023-01-02T01:06:11.854Z,23.40
2023-01-02T01:08:39.771Z,24.20
2023-01-02T01:11:13.450Z,26.60
2023-01-02T01:13:42.146Z,24.80
2023-01-02T01:16:15.751Z,26.40
2023-01-02T01:18:44.394Z,27.00
2023-01-02T01:21:18.092Z,35.10
2023-01-02T01:23:51.737Z,42.80
2023-01-02T01:26:20.714Z,43.10
2023-01-02T01:28:49.485Z,41.10
2023-01-02T01:31:17.639Z,39.50
2023-01-02T01:33:46.341Z,41.40
2023-01-02T01:36:16.697Z,41.10
2023-01-02T01:38:45.865Z,35.10
2023-01-02T01:41:17.851Z,38.10
2023-01-02T01:43:51.576Z,33.70
2023-01-02T01:46:39.590Z,28.10
2023-01-02T01:49:26.699Z,32.30
2023-01-02T01:51:58.521Z,34.80
2023-01-02T01:54:34.973Z,30.40
2023-01-02T01:57:13.323Z,27.20
2023-01-02T01:59:41.788Z,22.60
2023-01-02T02:02:09.952Z,32.10
2023-01-02T02:04:38.250Z,29.10
2023-01-02T02:07:06.473Z,33.00
2023-01-02T02:09:41.122Z,31.90
2023-01-02T02:12:09.179Z,31.70
2023-01-02T02:14:37.198Z,38.70
2023-01-02T02:17:38.742Z,32.50
2023-01-02T02:21:32.895Z,34.50
2023-01-02T02:24:45.169Z,31.70
2023-01-02T02:27:53.260Z,35.40
2023-01-02T02:30:24.181Z,35.00
2023-01-02T02:33:15.588Z,35.00
2023-01-02T02:36:10.814Z,36.60
2023-01-02T02:39:00.114Z,37.00
2023-01-02T02:41:53.630Z,28.30
2023-01-02T02:44:46.471Z,26.70
2023-01-02T02:48:30.844Z,26.40
2023-01-02T02:51:07.774Z,25.30
2023-01-02T02:53:50.678Z,26.00
2023-01-02T02:56:19.680Z,34.50
2023-01-02T02:58:47.725Z,44.80
2023-01-02T03:01:22.591Z,53.60
2023-01-02T03:03:53.720Z,42.80
2023-01-02T03:06:58.979Z,50.60
2023-01-02T03:10:32.006Z,58.10
2023-01-02T03:13:47.636Z,31.10
2023-01-02T03:16:38.429Z,37.70
2023-01-02T03:19:11.891Z,35.30
2023-01-02T03:21:59.222Z,31.30
2023-01-02T03:24:28.402Z,30.90
2023-01-02T03:27:07.337Z,28.70
2023-01-02T03:29:42.817Z,40.60
2023-01-02T03:32:39.939Z,31.40
2023-01-02T03:35:15.596Z,33.80
2023-01-02T03:37:49.497Z,26.50
2023-01-02T03:40:26.826Z,25.40
2023-01-02T03:43:08.507Z,27.00
2023-01-02T03:45:47.033Z,22.20
2023-01-02T03:48:41.568Z,28.40
2023-01-02T03:51:09.640Z,27.60
2023-01-02T03:53:39.759Z,21.00
2023-01-02T03:56:45.612Z,25.40
2023-01-02T03:59:22.905Z,23.40
2023-01-02T04:02:24.872Z,20.50
2023-01-02T04:05:04.833Z,20.20
2023-01-02T04:07:59.564Z,19.60
2023-01-02T04:10:29.405Z,17.70
2023-01-02T04:13:03.174Z,22.50
2023-01-02T04:15:34.143Z,21.90
2023-01-02T04:18:11.043Z,22.20
2023-01-02T04:20:44.015Z,22.60
2023-01-02T04:23:31.616Z,18.70
2023-01-02T04:26:12.419Z,21.20
2023-01-02T04:28:40.744Z,22.40
2023-01-02T04:31:43.229Z,16.80
2023-01-02T04:34:14.676Z,22.50
2023-01-02T04:36:43.413Z,20.00
2023-01-02T04:39:11.543Z,20.40
2023-01-02T04:41:40.226Z,20.90
2023-01-02T04:44:08.409Z,21.20
2023-01-02T04:46:36.359Z,17.20
2023-01-02T04:49:04.312Z,24.20
2023-01-02T04:51:32.330Z,20.40
2023-01-02T04:54:00.362Z,20.50
2023-01-02T04:56:28.345Z,23.30
2023-01-02T04:58:56.270Z,24.20
2023-01-02T05:01:24.695Z,22.40
2023-01-02T05:03:52.930Z,19.70
2023-01-02T05:06:21.110Z,20.30
2023-01-02T05:08:49.145Z,19.50
2023-01-02T05:11:19.880Z,23.20
2023-01-02T05:13:47.833Z,18.60
2023-01-02T05:16:15.906Z,18.20
2023-01-02T05:18:43.937Z,21.00
2023-01-02T05:21:32.042Z,20.80
2023-01-02T05:24:02.907Z,23.90
2023-01-02T05:26:33.033Z,23.10
2023-01-02T05:29:01.954Z,19.50
2023-01-02T05:31:30.217Z,30.60
2023-01-02T05:33:59.731Z,21.10
2023-01-02T05:36:28.226Z,21.60
2023-01-02T05:38:56.543Z,21.10
2023-01-02T05:41:24.671Z,20.20
2023-01-02T05:43:52.589Z,22.30
2023-01-02T05:46:21.513Z,22.80
2023-01-02T05:48:49.443Z,23.80
2023-01-02T05:51:18.340Z,26.40
2023-01-02T05:53:46.387Z,20.30
2023-01-02T05:56:17.853Z,17.60
2023-01-02T05:58:48.727Z,20.20
2023-01-02T06:01:20.794Z,19.40
2023-01-02T06:03:51.774Z,22.90
2023-01-02T06:06:26.066Z,22.00
2023-01-02T06:08:54.098Z,23.50
2023-01-02T06:11:22.208Z,23.10
2023-01-02T06:13:50.384Z,22.30
2023-01-02T06:16:18.440Z,26.90
2023-01-02T06:18:47.337Z,23.30
2023-01-02T06:21:18.865Z,21.10
2023-01-02T06:23:48.490Z,24.20
2023-01-02T06:26:19.462Z,31.60
2023-01-02T06:28:51.968Z,17.40
2023-01-02T06:31:22.977Z,19.10
2023-01-02T06:33:59.054Z,16.60
2023-01-02T06:36:33.317Z,18.70
2023-01-02T06:39:02.154Z,17.80
2023-01-02T06:41:30.262Z,15.40
2023-01-02T06:43:58.455Z,19.50
2023-01-02T06:46:26.496Z,21.10
2023-01-02T06:48:54.519Z,22.40
2023-01-02T06:51:24.190Z,26.60
2023-01-02T06:53:52.165Z,23.10
2023-01-02T06:56:21.513Z,25.00
2023-01-02T06:58:50.231Z,22.30
2023-01-02T07:01:22.132Z,26.60
2023-01-02T07:03:50.615Z,25.70
2023-01-02T07:06:22.511Z,26.90
2023-01-02T07:08:50.780Z,27.80
2023-01-02T07:11:25.000Z,27.10
2023-01-02T07:13:55.107Z,20.50
2023-01-02T07:16:24.409Z,21.10
2023-01-02T07:18:54.289Z,22.30
2023-01-02T07:21:22.977Z,19.30
2023-01-02T07:23:51.018Z,19.30
2023-01-02T07:26:20.553Z,21.00
2023-01-02T07:28:50.730Z,17.60
2023-01-02T07:31:20.134Z,15.90
2023-01-02T07:33:48.563Z,16.70
2023-01-02T07:36:19.301Z,19.30
2023-01-02T07:38:52.141Z,23.00
2023-01-02T07:41:25.672Z,20.00
2023-01-02T07:43:56.546Z,20.60
2023-01-02T07:46:24.793Z,27.90
2023-01-02T07:48:52.974Z,26.30
2023-01-02T07:51:26.582Z,23.30
2023-01-02T07:53:56.304Z,21.00
2023-01-02T07:56:25.979Z,23.50
2023-01-02T07:58:53.998Z,27.60
2023-01-02T08:01:22.256Z,22.90
2023-01-02T08:03:50.346Z,24.40
2023-01-02T08:06:19.396Z,22.50
2023-01-02T08:08:48.175Z,19.30
2023-01-02T08:11:22.145Z,14.90
2023-01-02T08:13:52.537Z,20.30
2023-01-02T08:16:22.405Z,14.90
2023-01-02T08:18:55.649Z,15.80
2023-01-02T08:21:26.500Z,17.70
2023-01-02T08:23:54.862Z,15.40
2023-01-02T08:26:24.232Z,16.40
2023-01-02T08:28:52.386Z,16.40
2023-01-02T08:31:22.197Z,15.20
2023-01-02T08:33:50.656Z,13.00
2023-01-02T08:36:18.956Z,12.50
2023-01-02T08:38:47.165Z,13.10
2023-01-02T08:41:15.462Z,13.90
2023-01-02T08:43:43.813Z,11.20
2023-01-02T08:46:11.868Z,19.00
2023-01-02T08:48:40.093Z,16.90
2023-01-02T08:51:08.270Z,17.20
2023-01-02T08:53:36.566Z,18.20
2023-01-02T08:56:25.866Z,14.80
2023-01-02T08:59:02.999Z,14.50
2023-01-02T09:01:33.219Z,13.20
2023-01-02T09:04:09.369Z,12.70
2023-01-02T09:06:40.628Z,13.80
2023-01-02T09:09:12.692Z,12.50
2023-01-02T09:11:50.974Z,15.40
2023-01-02T09:14:21.745Z,17.40
2023-01-02T09:16:51.893Z,14.80
2023-01-02T09:19:20.259Z,13.20
2023-01-02T09:21:48.505Z,11.00
2023-01-02T09:24:16.913Z,14.10
2023-01-02T09:26:45.386Z,14.00
2023-01-02T09:29:15.386Z,10.30
2023-01-02T09:31:43.637Z,15.00
2023-01-02T09:34:12.161Z,16.90
2023-01-02T09:36:40.292Z,27.90
2023-01-02T09:39:08.472Z,37.60
2023-01-02T09:41:41.547Z,40.90
2023-01-02T09:44:43.808Z,34.00
2023-01-02T09:47:11.847Z,29.40
2023-01-02T09:49:52.728Z,22.20
2023-01-02T09:52:37.249Z,21.60
2023-01-02T09:55:16.377Z,16.00
2023-01-02T09:58:10.607Z,19.10
2023-01-02T10:00:39.179Z,20.60
2023-01-02T10:03:30.199Z,19.40
2023-01-02T10:06:20.093Z,14.00
2023-01-02T10:09:13.065Z,13.00
2023-01-02T10:12:46.953Z,11.40
2023-01-02T10:15:21.617Z,12.80
2023-01-02T10:17:54.533Z,14.90
2023-01-02T10:20:33.418Z,11.30
2023-01-02T10:23:14.973Z,16.90
2023-01-02T10:25:53.012Z,13.70
2023-01-02T10:28:30.926Z,15.10
2023-01-02T10:31:15.716Z,13.20
2023-01-02T10:33:57.512Z,12.20
2023-01-02T10:36:33.905Z,11.10
2023-01-02T10:39:22.691Z,15.10
2023-01-02T10:41:55.502Z,19.50
2023-01-02T10:46:57.172Z,20.40
2023-01-02T10:49:26.593Z,22.90
2023-01-02T10:52:13.268Z,19.40
2023-01-02T10:54:59.527Z,17.40
2023-01-02T10:57:40.163Z,16.00
2023-01-02T11:00:32.202Z,16.60
2023-01-02T11:03:06.864Z,16.30
2023-01-02T11:05:48.107Z,16.30
2023-01-02T11:08:24.548Z,16.70
2023-01-02T11:10:52.653Z,14.40
2023-01-02T11:14:12.622Z,15.70
2023-01-02T11:16:42.379Z,12.10
2023-01-02T11:19:29.376Z,9.60
2023-01-02T11:21:58.604Z,14.30
2023-01-02T11:24:28.594Z,12.00
2023-01-02T11:26:56.965Z,15.50
2023-01-02T11:29:33.618Z,12.70
2023-01-02T11:32:06.898Z,14.00
2023-01-02T11:34:40.190Z,15.10
2023-01-02T11:37:17.500Z,15.80
2023-01-02T11:40:05.455Z,13.80
2023-01-02T11:43:02.181Z,15.50
2023-01-02T11:45:30.828Z,14.20
2023-01-02T11:48:16.827Z,11.60
2023-01-02T11:50:47.137Z,13.50
2023-01-02T11:53:25.570Z,14.00
2023-01-02T11:55:59.010Z,13.50
2023-01-02T11:59:17.177Z,12.80
2023-01-02T12:01:54.553Z,9.40
2023-01-02T12:04:23.879Z,9.40
2023-01-02T12:07:07.629Z,12.90
2023-01-02T12:09:46.568Z,16.50
2023-01-02T12:12:37.967Z,11.10
2023-01-02T12:15:35.678Z,9.80
2023-01-02T12:18:53.419Z,10.10
2023-01-02T12:21:24.164Z,10.60
2023-01-02T12:24:23.524Z,12.20
2023-01-02T12:27:10.954Z,11.80
2023-01-02T12:30:12.233Z,12.50
2023-01-02T12:33:01.297Z,10.60
2023-01-02T12:35:57.201Z,12.10
2023-01-02T12:39:06.340Z,16.20
2023-01-02T12:42:26.137Z,14.50
2023-01-02T12:44:58.063Z,19.90
2023-01-02T12:47:55.992Z,16.40
2023-01-02T12:51:10.546Z,19.80
2023-01-02T12:54:47.650Z,17.60
2023-01-02T12:57:30.738Z,18.40
2023-01-02T13:00:18.866Z,17.10
2023-01-02T13:02:54.409Z,13.20
2023-01-02T13:05:26.510Z,19.70
2023-01-02T13:08:14.954Z,13.30
2023-01-02T13:10:46.592Z,13.70
2023-01-02T13:13:14.231Z,14.40
2023-01-02T13:15:46.911Z,14.40
2023-01-02T13:21:29.956Z,16.90
2023-01-02T13:23:57.356Z,13.40
2023-01-02T13:26:29.508Z,13.60
2023-01-02T13:29:08.330Z,14.20
2023-01-02T13:31:48.760Z,13.60
2023-01-02T13:34:27.435Z,14.50
2023-01-02T13:37:25.393Z,23.20
2023-01-02T13:39:55.740Z,26.00
2023-01-02T13:42:51.363Z,51.80
2023-01-02T13:45:31.166Z,78.60
2023-01-02T13:48:02.387Z,212.80
2023-01-02T13:50:34.234Z,274.70
2023-01-02T13:53:10.067Z,111.80
2023-01-02T13:55:40.327Z,90.10
2023-01-02T13:58:17.254Z,46.80
2023-01-02T14:00:55.225Z,27.20
2023-01-02T14:03:22.788Z,19.50
2023-01-02T14:05:56.210Z,17.80
2023-01-02T14:08:31.465Z,18.20
2023-01-02T14:11:28.078Z,18.30
2023-01-02T14:13:55.676Z,19.40
2023-01-02T14:17:37.309Z,18.40
2023-01-02T14:20:27.727Z,21.00
2023-01-02T14:23:10.586Z,17.60
2023-01-02T14:25:48.769Z,19.80
2023-01-02T14:28:29.419Z,17.60
2023-01-02T14:30:57.242Z,22.10
2023-01-02T14:33:32.988Z,19.40
2023-01-02T14:36:11.603Z,15.00
2023-01-02T14:38:43.192Z,13.30
2023-01-02T14:42:07.880Z,18.00
2023-01-02T14:44:42.402Z,14.70
2023-01-02T14:47:20.620Z,14.60
2023-01-02T14:49:56.873Z,12.00
2023-01-02T14:52:32.846Z,17.50
2023-01-02T14:55:19.982Z,15.50
2023-01-02T14:57:51.914Z,15.10
2023-01-02T15:00:38.245Z,15.30
2023-01-02T15:03:30.079Z,13.60
2023-01-02T15:06:13.230Z,13.80
2023-01-02T15:11:44.528Z,17.40
2023-01-02T15:14:23.566Z,16.50
2023-01-02T15:16:55.927Z,20.00
2023-01-02T15:19:26.956Z,15.00
2023-01-02T15:21:54.481Z,13.40
2023-01-02T15:24:27.279Z,12.70
2023-01-02T15:26:54.034Z,17.00
2023-01-02T15:29:22.313Z,12.20
2023-01-02T15:31:58.463Z,13.60
2023-01-02T15:34:31.115Z,13.00
2023-01-02T15:39:37.631Z,16.40
2023-01-02T15:42:25.382Z,16.30
2023-01-02T15:45:10.773Z,16.70
2023-01-02T15:47:45.261Z,16.40
2023-01-02T15:50:21.142Z,17.60
2023-01-02T15:53:01.133Z,18.50
2023-01-02T15:55:39.282Z,19.50
2023-01-02T15:58:15.153Z,19.30
2023-01-02T16:00:44.452Z,17.60
2023-01-02T16:04:00.539Z,17.10
2023-01-02T16:06:35.068Z,18.10
2023-01-02T16:09:05.032Z,19.70
2023-01-02T16:11:45.760Z,17.10
2023-01-02T16:14:19.481Z,19.60
2023-01-02T16:17:05.803Z,20.90
2023-01-02T16:19:36.852Z,18.40
2023-01-02T16:22:09.562Z,20.90
2023-01-02T16:27:21.528Z,22.10
2023-01-02T16:29:49.800Z,24.00
2023-01-02T16:32:29.769Z,22.60
2023-01-02T16:35:38.092Z,20.80
2023-01-02T16:38:22.064Z,18.20
2023-01-02T16:41:00.989Z,25.80
2023-01-02T16:43:33.432Z,24.30
2023-01-02T16:46:05.615Z,17.40
2023-01-02T16:48:33.078Z,19.80
2023-01-02T16:51:00.222Z,18.90
2023-01-02T16:53:33.375Z,18.60
2023-01-02T16:56:00.532Z,20.70
2023-01-02T16:58:28.611Z,19.40
2023-01-02T17:00:55.766Z,18.80
2023-01-02T17:03:27.078Z,23.60
2023-01-02T17:06:01.030Z,21.70
2023-01-02T17:08:33.863Z,18.70
2023-01-02T17:11:00.943Z,34.60
2023-01-02T17:13:32.215Z,30.20
2023-01-02T17:16:00.831Z,43.50
2023-01-02T17:18:30.119Z,38.70
2023-01-02T17:20:56.922Z,32.70
2023-01-02T17:23:24.342Z,24.60
2023-01-02T17:25:54.515Z,23.90
2023-01-02T17:28:21.582Z,34.80
2023-01-02T17:30:50.101Z,40.30
2023-01-02T17:33:17.881Z,44.90
2023-01-02T17:35:47.164Z,37.30
2023-01-02T17:38:14.668Z,42.70
2023-01-02T17:40:41.515Z,49.70
2023-01-02T17:43:08.242Z,40.70
2023-01-02T17:45:35.058Z,30.60
2023-01-02T17:48:30.957Z,38.70
2023-01-02T17:50:53.158Z,29.10
2023-01-02T17:53:20.474Z,42.50
2023-01-02T17:56:20.457Z,47.00
2023-01-02T17:58:47.347Z,50.40
2023-01-02T18:01:25.987Z,45.90
2023-01-02T18:03:52.678Z,37.40
2023-01-02T18:06:19.663Z,40.20
2023-01-02T18:08:46.408Z,25.70
2023-01-02T18:11:15.622Z,21.50
2023-01-02T18:13:48.501Z,49.10
2023-01-02T18:16:20.529Z,31.90
2023-01-02T18:18:48.723Z,18.60
2023-01-02T18:21:21.315Z,18.00
2023-01-02T18:23:54.165Z,19.50
2023-01-02T18:28:56.641Z,15.20
2023-01-02T18:31:33.028Z,34.60
2023-01-02T18:34:45.791Z,37.30
2023-01-02T18:37:05.702Z,32.60
2023-01-02T18:39:41.853Z,26.10
2023-01-02T18:42:08.563Z,16.90
2023-01-02T18:44:35.385Z,19.30
2023-01-02T18:47:28.927Z,13.20
2023-01-02T18:50:23.764Z,18.00
2023-01-02T18:52:51.127Z,14.70
2023-01-02T18:55:28.083Z,15.60
2023-01-02T18:58:01.506Z,18.10
2023-01-02T19:00:36.172Z,19.50
2023-01-02T19:03:21.113Z,18.60
2023-01-02T19:05:47.915Z,13.10
2023-01-02T19:08:34.560Z,13.30
2023-01-02T19:11:21.450Z,16.30
2023-01-02T19:13:49.707Z,12.80
2023-01-02T19:16:19.581Z,15.10
2023-01-02T19:18:55.859Z,16.80
2023-01-02T19:21:31.695Z,15.20
2023-01-02T19:24:07.723Z,15.70
2023-01-02T19:26:44.677Z,18.20
2023-01-02T19:29:26.357Z,13.20
2023-01-02T20:01:22.932Z,12.00
2023-01-02T20:06:26.640Z,13.10
2023-01-02T20:08:14.074Z,12.80
2023-01-02T20:15:49.506Z,13.00
2023-01-02T20:24:04.715Z,12.60
2023-01-02T20:26:51.299Z,12.80
2023-01-02T20:30:50.082Z,12.70
2023-01-02T20:34:23.449Z,13.10
2023-01-02T20:37:47.280Z,11.60
2023-01-02T20:41:24.478Z,11.00
2023-01-02T20:45:11.995Z,12.20
2023-01-02T20:48:01.289Z,13.40
2023-01-02T20:52:10.943Z,12.90
2023-01-02T20:54:41.930Z,15.00
2023-01-02T20:57:19.091Z,12.60
2023-01-02T20:59:51.058Z,15.90
2023-01-02T21:02:20.118Z,14.20
2023-01-02T21:04:50.109Z,12.40
2023-01-02T21:07:22.179Z,12.80
2023-01-02T21:09:58.235Z,13.80
2023-01-02T21:12:48.116Z,19.00
2023-01-02T21:15:36.754Z,13.20
2023-01-02T21:18:31.059Z,15.70
2023-01-02T21:21:16.376Z,15.00
2023-01-02T21:24:08.884Z,13.70
2023-01-02T21:26:37.132Z,10.20
2023-01-02T21:29:06.715Z,11.80
2023-01-02T21:31:36.305Z,14.80
2023-01-02T21:34:04.485Z,14.80
2023-01-02T21:36:36.378Z,12.90
2023-01-02T21:39:08.061Z,9.80
2023-01-02T21:41:57.605Z,14.70
2023-01-02T21:44:26.227Z,12.30
2023-01-02T21:46:54.510Z,11.00
2023-01-02T21:49:22.911Z,10.60
2023-01-02T21:51:53.436Z,11.20
2023-01-02T21:54:30.666Z,13.50
2023-01-02T21:56:58.916Z,13.70
2023-01-02T21:59:30.044Z,10.50
2023-01-02T22:02:00.175Z,18.40
2023-01-02T22:04:31.960Z,13.90
2023-01-02T22:09:51.570Z,14.90
2023-01-02T22:12:29.973Z,14.50
2023-01-02T22:14:58.484Z,12.20
2023-01-02T22:17:26.527Z,17.80
2023-01-02T22:19:55.082Z,15.10
2023-01-02T22:22:26.676Z,14.10
2023-01-02T22:24:58.221Z,11.90
2023-01-02T22:27:26.779Z,14.60
2023-01-02T22:32:50.224Z,13.80
2023-01-02T22:35:18.528Z,14.40
2023-01-02T22:37:46.680Z,12.10
2023-01-02T22:40:15.044Z,14.30
2023-01-02T22:43:00.915Z,13.70
2023-01-02T22:45:39.747Z,12.90
2023-01-02T22:48:19.892Z,11.70
2023-01-02T22:50:51.219Z,10.90
2023-01-02T22:53:33.570Z,11.70
2023-01-02T22:56:07.127Z,10.70
2023-01-02T22:58:37.484Z,8.90
2023-01-02T23:01:21.728Z,9.50
2023-01-02T23:03:52.818Z,9.40
2023-01-02T23:06:23.177Z,7.20
2023-01-02T23:08:54.333Z,5.10
2023-01-02T23:11:25.553Z,5.50
2023-01-02T23:13:56.907Z,6.60
2023-01-02T23:16:46.231Z,6.20
2023-01-02T23:19:17.585Z,5.20
2023-01-02T23:22:01.834Z,7.10
2023-01-02T23:24:37.801Z,7.50
2023-01-02T23:27:13.417Z,5.70
2023-01-02T23:29:43.163Z,6.00
2023-01-02T23:32:12.882Z,6.40
2023-01-02T23:34:41.416Z,5.80
2023-01-02T23:37:11.033Z,6.10
2023-01-02T23:39:42.191Z,6.40
2023-01-02T23:42:13.303Z,6.00
2023-01-02T23:44:44.823Z,4.00
2023-01-02T23:47:18.648Z,7.80
2023-01-02T23:49:47.371Z,5.60
2023-01-02T23:52:18.748Z,6.70
2023-01-02T23:54:47.378Z,4.80
2023-01-02T23:57:16.329Z,5.60
2023-01-02T23:59:47.682Z,6.90
